Terminal Aerodrome Forecast
Issued by NWS San Angelo, TX

Current Version | Previous Version | Text Only | Print | Product List | Glossary Off
Versions: 1 2 3 4 5 6 7 8 9 10 11 12 13 14 15 16 17 18 19 20 21 22 23

774
FTUS44 KSJT 010739 AAB
TAFSJT
TAF AMD
KSJT 010739Z 0108/0206 03010G20KT P6SM VCTS BKN020CB
      TEMPO 0108/0110 4SM TSRA BKN012CB
     FM011500 VRB04KT P6SM VCSH BKN030
     FM011600 VRB04KT P6SM VCSH BKN040=

USA.gov is the U.S. government's official web portal to all federal, state and local government web resources and services.